CheckWX is a tool to help pilots better visualize weather data.  It is not intended as a substitute for an official pre-flight weather briefing.

06:33:39 UTC

KGBG METAR
Galesburg Municipal Airport
Galesburg, Illinois, USA
Current

19 mins ago

KGBG 040615Z AUTO 00000KT 10SM CLR 21/18 A3004 RMK AO2 T02060181
Observed
Jul-4 @ 06:15 UTC
Visibility
10 SM
Flight Rules
VFR
Cloud Levels
  • Clear skies
Temperature
21°C / 70°F
Dewpoint
18°C / 64°F
Humidity
83%
Altimeter
30.04" Hg
Pressure
1017.32 hPa
Previous

39 mins ago

KGBG 040555Z AUTO 00000KT 10SM CLR 21/18 A3004 RMK AO2 T02100182 10285 20209 403130204
Observed
Jul-4 @ 05:55 UTC
Visibility
10 SM
Flight Rules
VFR
Cloud Levels
  • Clear skies
Dewpoint
18°C / 64°F
Humidity
83%
Altimeter
30.04" Hg
Pressure
1017.32 hPa
Previous

59 mins ago

KGBG 040535Z AUTO 00000KT 10SM CLR 21/18 A3004 RMK AO2 T02100183
Observed
Jul-4 @ 05:35 UTC
Visibility
10 SM
Flight Rules
VFR
Cloud Levels
  • Clear skies
Temperature
21°C / 70°F
Dewpoint
18°C / 64°F
Humidity
83%
Altimeter
30.04" Hg
Pressure
1017.32 hPa